Time;durP1;ratioP1;P1;durP2;ratioP2;P2;SDS_P1;SDS_P2;PMS_P1;PMS_P2;Temp;Humidity;BMP_temperature;BMP_pressure;BME280_temperature;BME280_humidity;BME280_pressure;Samples;Min_cycle;Max_cycle;Signal;HPM_P1;HPM_P2
2023/12/21 00:02:09;;;;;;;2.10;1.00;;;6.70;99.90;;;;;;5016815;28;20182;-87
2023/12/21 00:04:35;;;;;;;1.20;1.00;;;7.50;99.90;;;;;;5020870;28;20237;-87
2023/12/21 00:07:00;;;;;;;1.00;0.90;;;7.40;99.90;;;;;;5014425;28;20194;-86
2023/12/21 00:09:26;;;;;;;1.40;1.10;;;7.20;99.90;;;;;;5017217;28;20289;-87
2023/12/21 00:11:52;;;;;;;1.80;1.10;;;7.10;99.90;;;;;;5019493;28;20217;-87
2023/12/21 00:14:17;;;;;;;0.80;0.80;;;7.10;99.90;;;;;;5016940;28;20264;-88
2023/12/21 00:16:43;;;;;;;1.27;0.80;;;7.60;99.90;;;;;;5018312;28;20233;-87
2023/12/21 00:19:08;;;;;;;1.77;0.80;;;7.20;99.90;;;;;;5019872;28;20567;-87
2023/12/21 00:21:34;;;;;;;0.70;0.60;;;7.10;99.90;;;;;;5020383;28;20186;-87
2023/12/21 00:23:59;;;;;;;0.83;0.83;;;8.10;99.90;;;;;;5017277;28;20221;-87
2023/12/21 00:26:25;;;;;;;1.50;0.80;;;7.20;99.90;;;;;;5021087;28;20196;-87
2023/12/21 00:28:50;;;;;;;1.20;0.93;;;7.20;99.90;;;;;;5016293;28;20298;-87
2023/12/21 00:31:16;;;;;;;0.80;0.80;;;7.20;99.90;;;;;;5017177;28;20638;-87
2023/12/21 00:33:41;;;;;;;0.90;0.63;;;7.00;99.90;;;;;;5018845;28;20210;-86
2023/12/21 00:36:07;;;;;;;0.80;0.70;;;7.20;99.90;;;;;;5018913;28;20198;-87
2023/12/21 00:38:32;;;;;;;1.17;0.70;;;7.00;99.90;;;;;;5022946;28;20209;-87
2023/12/21 00:40:59;;;;;;;0.73;0.60;;;7.00;99.90;;;;;;5023190;28;20191;-87
2023/12/21 00:43:25;;;;;;;0.80;0.70;;;7.10;99.90;;;;;;5013451;28;20686;-87
2023/12/21 00:45:50;;;;;;;1.20;0.88;;;6.60;99.90;;;;;;5015505;28;20254;-87
2023/12/21 00:48:17;;;;;;;2.47;0.80;;;7.20;99.90;;;;;;5014448;28;20674;-87
2023/12/21 00:50:42;;;;;;;1.00;0.75;;;7.00;99.90;;;;;;5017046;28;20213;-87
2023/12/21 00:53:08;;;;;;;0.70;0.70;;;7.10;99.90;;;;;;5014563;28;20193;-87
2023/12/21 00:55:33;;;;;;;2.50;0.80;;;7.30;99.90;;;;;;5014627;28;20209;-87
2023/12/21 00:57:59;;;;;;;0.70;0.70;;;7.50;99.90;;;;;;5016643;28;20269;-87
2023/12/21 01:00:24;;;;;;;1.47;1.00;;;7.30;99.90;;;;;;5019854;28;20248;-88
2023/12/21 01:02:50;;;;;;;0.90;0.63;;;6.70;99.90;;;;;;5016169;28;20546;-87
2023/12/21 01:05:15;;;;;;;0.90;0.80;;;7.10;99.90;;;;;;5015142;28;20206;-89
2023/12/21 01:07:41;;;;;;;1.17;0.60;;;7.20;99.90;;;;;;5018428;28;20200;-87
2023/12/21 01:10:08;;;;;;;1.40;0.60;;;6.90;99.90;;;;;;5016566;28;20190;-88
2023/12/21 01:12:34;;;;;;;0.90;0.70;;;7.00;99.90;;;;;;5007943;28;20189;-88
2023/12/21 01:15:00;;;;;;;0.80;0.60;;;7.60;99.90;;;;;;5015292;28;20202;-88
2023/12/21 01:17:26;;;;;;;1.23;1.02;;;7.10;99.90;;;;;;5013013;28;20411;-87
2023/12/21 01:19:52;;;;;;;0.87;0.80;;;7.30;99.90;;;;;;5020254;28;20591;-87
2023/12/21 01:22:18;;;;;;;0.80;0.60;;;7.60;99.90;;;;;;5019253;28;20407;-86
2023/12/21 01:24:43;;;;;;;0.83;0.70;;;7.60;99.90;;;;;;5026162;28;20202;-86
2023/12/21 01:27:08;;;;;;;0.80;0.67;;;7.70;99.90;;;;;;5029209;28;20309;-86
2023/12/21 01:29:34;;;;;;;1.00;0.73;;;7.60;99.90;;;;;;5016948;28;20190;-87
2023/12/21 01:32:00;;;;;;;0.90;0.77;;;7.70;99.90;;;;;;5019603;28;20206;-87
2023/12/21 01:34:25;;;;;;;0.80;0.60;;;7.10;99.90;;;;;;5011305;28;20218;-87
2023/12/21 01:36:51;;;;;;;0.70;0.63;;;7.30;99.90;;;;;;5016847;28;20205;-86
2023/12/21 01:39:16;;;;;;;0.83;0.53;;;7.40;99.90;;;;;;5012801;28;20175;-86
2023/12/21 01:41:41;;;;;;;1.10;0.70;;;7.30;99.90;;;;;;5019765;28;20592;-87
2023/12/21 01:44:07;;;;;;;0.90;0.80;;;7.30;99.90;;;;;;5020918;28;20201;-87
2023/12/21 01:46:34;;;;;;;0.97;0.60;;;7.20;99.90;;;;;;5039546;28;20174;-87
2023/12/21 01:49:00;;;;;;;0.90;0.60;;;7.60;99.90;;;;;;5032486;28;20198;-86
2023/12/21 01:51:26;;;;;;;0.60;0.60;;;7.20;99.90;;;;;;5025489;28;20216;-85
2023/12/21 01:53:53;;;;;;;0.80;0.65;;;7.20;99.90;;;;;;5025389;28;20198;-85
2023/12/21 01:56:20;;;;;;;0.80;0.65;;;7.20;99.90;;;;;;5021062;28;20285;-86
2023/12/21 01:58:49;;;;;;;0.68;0.50;;;7.20;99.90;;;;;;5018374;28;20179;-87
2023/12/21 02:01:17;;;;;;;0.70;0.60;;;7.20;99.90;;;;;;5015445;28;20333;-86
2023/12/21 02:03:43;;;;;;;1.00;0.70;;;7.50;99.90;;;;;;5020989;28;20562;-87
2023/12/21 02:06:09;;;;;;;1.70;0.70;;;7.40;99.90;;;;;;5020730;28;20185;-86
2023/12/21 02:08:34;;;;;;;0.90;0.60;;;7.20;99.90;;;;;;5014667;28;20193;-85
2023/12/21 02:11:04;;;;;;;0.70;0.60;;;7.20;99.90;;;;;;5018807;28;20237;-86
2023/12/21 02:13:30;;;;;;;0.90;0.60;;;7.50;99.90;;;;;;5018509;28;20261;-86
2023/12/21 02:15:58;;;;;;;0.60;0.50;;;7.50;99.90;;;;;;5028732;28;20186;-85
2023/12/21 02:18:24;;;;;;;0.60;0.50;;;7.50;99.90;;;;;;5019940;28;20568;-86
2023/12/21 02:20:50;;;;;;;0.70;0.55;;;7.70;99.90;;;;;;5019016;28;20190;-86
2023/12/21 02:23:18;;;;;;;0.60;0.50;;;6.80;99.90;;;;;;5018629;28;20563;-86
2023/12/21 02:25:43;;;;;;;0.60;0.60;;;7.30;99.90;;;;;;5020680;28;20204;-86
2023/12/21 02:28:09;;;;;;;1.13;0.63;;;7.40;99.90;;;;;;5020876;28;20585;-86
2023/12/21 02:30:35;;;;;;;0.83;0.60;;;7.30;99.90;;;;;;5020995;28;20367;-85
2023/12/21 02:33:01;;;;;;;0.60;0.50;;;7.20;99.90;;;;;;5022238;28;20677;-86
2023/12/21 02:35:26;;;;;;;1.53;0.50;;;7.40;99.90;;;;;;5021052;28;20716;-85
2023/12/21 02:37:52;;;;;;;1.10;0.60;;;7.30;99.90;;;;;;5015462;28;20518;-85
2023/12/21 02:40:17;;;;;;;0.70;0.40;;;7.60;99.90;;;;;;5014640;28;20194;-87
2023/12/21 02:42:43;;;;;;;0.60;0.50;;;7.80;99.90;;;;;;5020494;28;20219;-86
2023/12/21 02:45:08;;;;;;;3.03;0.57;;;7.50;99.90;;;;;;5022689;28;20206;-86
2023/12/21 02:47:34;;;;;;;0.63;0.50;;;7.40;99.90;;;;;;5035730;28;20189;-86
2023/12/21 02:50:02;;;;;;;1.03;0.50;;;7.40;99.90;;;;;;5026474;28;20482;-84
2023/12/21 02:52:27;;;;;;;1.52;0.50;;;7.60;99.90;;;;;;5029724;28;20275;-84
2023/12/21 02:54:53;;;;;;;0.90;0.60;;;7.90;99.90;;;;;;5021106;28;20202;-84
2023/12/21 02:57:18;;;;;;;0.70;0.60;;;7.90;99.90;;;;;;5022525;28;20261;-85
2023/12/21 02:59:44;;;;;;;0.63;0.50;;;7.90;99.90;;;;;;5016157;28;20688;-86
2023/12/21 03:02:09;;;;;;;2.00;0.53;;;7.70;99.90;;;;;;5030678;28;20276;-89
2023/12/21 03:04:35;;;;;;;0.60;0.50;;;9.30;99.90;;;;;;5016880;28;20554;-86
2023/12/21 03:07:01;;;;;;;0.87;0.50;;;7.40;99.90;;;;;;5019598;28;20186;-85
2023/12/21 03:09:26;;;;;;;0.63;0.47;;;7.80;99.90;;;;;;5009602;28;20480;-85
2023/12/21 03:11:52;;;;;;;0.53;0.40;;;7.60;99.90;;;;;;5016569;28;20245;-85
2023/12/21 03:14:17;;;;;;;0.67;0.50;;;7.80;99.90;;;;;;5015065;28;20202;-87
2023/12/21 03:16:43;;;;;;;0.70;0.40;;;7.60;99.90;;;;;;5004838;28;20689;-85
2023/12/21 03:19:09;;;;;;;0.60;0.50;;;7.40;99.90;;;;;;5021419;28;20535;-85
2023/12/21 03:21:36;;;;;;;0.60;0.60;;;7.70;99.90;;;;;;5017190;28;20194;-87
2023/12/21 03:24:02;;;;;;;0.77;0.55;;;8.10;99.90;;;;;;5017835;28;20210;-86
2023/12/21 03:26:27;;;;;;;0.60;0.50;;;7.50;99.90;;;;;;5017394;28;20305;-87
2023/12/21 03:28:53;;;;;;;0.60;0.50;;;8.10;99.90;;;;;;5013280;28;20430;-85
2023/12/21 03:31:20;;;;;;;0.73;0.60;;;7.80;99.90;;;;;;5018365;28;20209;-85
2023/12/21 03:33:46;;;;;;;0.70;0.40;;;8.30;99.90;;;;;;5023449;28;20654;-86
2023/12/21 03:36:12;;;;;;;1.63;0.60;;;7.80;99.90;;;;;;5018445;28;20172;-86
2023/12/21 03:38:38;;;;;;;1.60;0.50;;;8.10;99.90;;;;;;5017955;28;22123;-86
2023/12/21 03:41:03;;;;;;;0.60;0.50;;;7.20;99.90;;;;;;5018683;28;20192;-87
2023/12/21 03:43:29;;;;;;;0.70;0.60;;;7.70;99.90;;;;;;5015581;28;20182;-87
2023/12/21 03:45:54;;;;;;;1.47;0.50;;;7.90;99.90;;;;;;5018651;28;20189;-86
2023/12/21 03:48:20;;;;;;;0.97;0.40;;;7.60;99.90;;;;;;5021316;28;20272;-87
2023/12/21 03:50:45;;;;;;;0.80;0.40;;;8.10;99.90;;;;;;5019574;28;20212;-87
2023/12/21 03:53:11;;;;;;;0.97;0.70;;;7.60;99.90;;;;;;5008801;28;20219;-87
2023/12/21 03:55:37;;;;;;;0.60;0.50;;;7.90;99.90;;;;;;5034811;28;20214;-88
2023/12/21 03:58:04;;;;;;;0.70;0.60;;;7.90;99.90;;;;;;5018765;28;20482;-88
2023/12/21 04:00:29;;;;;;;0.52;0.40;;;7.80;99.90;;;;;;5019983;28;20669;-86
2023/12/21 04:02:55;;;;;;;0.60;0.50;;;7.90;99.90;;;;;;5015391;28;20186;-87
2023/12/21 04:05:20;;;;;;;0.60;0.50;;;7.80;99.90;;;;;;5016957;28;20205;-88
2023/12/21 04:07:46;;;;;;;0.60;0.50;;;7.70;99.90;;;;;;5018809;28;20659;-87
2023/12/21 04:10:11;;;;;;;0.60;0.50;;;7.70;99.90;;;;;;5021769;28;20293;-86
2023/12/21 04:12:37;;;;;;;0.60;0.50;;;7.70;99.90;;;;;;5017621;28;20236;-88
2023/12/21 04:15:03;;;;;;;0.60;0.50;;;7.90;99.90;;;;;;5038117;28;20597;-87
2023/12/21 04:17:28;;;;;;;1.17;0.73;;;7.90;99.90;;;;;;5018801;28;20222;-87
2023/12/21 04:19:54;;;;;;;0.50;0.40;;;7.80;99.90;;;;;;5017172;28;21021;-88
2023/12/21 04:22:19;;;;;;;0.83;0.40;;;8.10;99.90;;;;;;5016250;28;20206;-87
2023/12/21 04:24:45;;;;;;;0.60;0.40;;;7.90;99.90;;;;;;5013378;28;20269;-87
2023/12/21 04:27:11;;;;;;;1.60;1.50;;;7.80;99.90;;;;;;5016279;28;20197;-87
2023/12/21 04:29:40;;;;;;;0.70;0.50;;;7.90;99.90;;;;;;5016267;28;20247;-87
2023/12/21 04:32:08;;;;;;;0.60;0.50;;;7.60;99.90;;;;;;5036296;28;20218;-87
2023/12/21 04:34:34;;;;;;;0.60;0.40;;;7.70;99.90;;;;;;5016750;28;20195;-87
2023/12/21 04:36:59;;;;;;;1.00;0.80;;;7.90;99.90;;;;;;5015042;28;20186;-87
2023/12/21 04:39:25;;;;;;;2.90;0.50;;;7.60;99.90;;;;;;5017602;28;20288;-87
2023/12/21 04:41:50;;;;;;;1.27;0.47;;;7.70;99.90;;;;;;5022236;28;20564;-87
2023/12/21 04:44:16;;;;;;;0.60;0.50;;;7.60;99.90;;;;;;5019444;28;20252;-87
2023/12/21 04:46:44;;;;;;;0.80;0.73;;;8.00;99.90;;;;;;5016750;28;20270;-86
2023/12/21 04:49:09;;;;;;;1.02;0.77;;;7.40;99.90;;;;;;5019820;28;20678;-87
2023/12/21 04:51:35;;;;;;;0.93;0.80;;;7.70;99.90;;;;;;5013916;28;20246;-87
2023/12/21 04:54:00;;;;;;;0.60;0.50;;;7.60;99.90;;;;;;5015825;28;20288;-87
2023/12/21 04:56:26;;;;;;;1.00;0.60;;;7.50;99.90;;;;;;5019367;28;20281;-87
2023/12/21 04:58:51;;;;;;;0.70;0.50;;;7.60;99.90;;;;;;5019628;28;20189;-87
2023/12/21 05:01:18;;;;;;;0.87;0.50;;;;;;;;;;5021016;28;20201;-88
2023/12/21 05:03:43;;;;;;;3.50;2.50;;;7.50;99.90;;;;;;5022579;28;20206;-88
2023/12/21 05:06:09;;;;;;;0.90;0.77;;;7.70;99.90;;;;;;5016209;28;20182;-87
2023/12/21 05:08:34;;;;;;;0.60;0.47;;;8.10;99.90;;;;;;5012779;28;20565;-87
2023/12/21 05:11:00;;;;;;;0.60;0.50;;;7.80;99.90;;;;;;5021031;28;20212;-86
2023/12/21 05:13:25;;;;;;;0.77;0.50;;;7.90;99.90;;;;;;5027506;28;20205;-87
2023/12/21 05:15:51;;;;;;;0.50;0.40;;;7.80;99.90;;;;;;5003335;28;20186;-88
2023/12/21 05:18:17;;;;;;;0.70;0.70;;;7.90;99.90;;;;;;5019430;28;20183;-88
2023/12/21 05:20:42;;;;;;;0.93;0.60;;;7.70;99.90;;;;;;5015998;28;20679;-87
2023/12/21 05:23:08;;;;;;;0.70;0.50;;;7.80;99.90;;;;;;5020520;28;20504;-88
2023/12/21 05:25:33;;;;;;;0.60;0.50;;;7.90;99.90;;;;;;5015847;28;20293;-88
2023/12/21 05:27:59;;;;;;;1.00;0.50;;;8.10;99.90;;;;;;5011049;28;20198;-87
2023/12/21 05:30:24;;;;;;;0.60;0.40;;;7.90;99.90;;;;;;5030737;28;20217;-87
2023/12/21 05:32:50;;;;;;;0.70;0.43;;;7.70;99.90;;;;;;5038081;28;20184;-88
2023/12/21 05:35:16;;;;;;;0.97;0.60;;;7.90;99.90;;;;;;5018226;28;20205;-87
2023/12/21 05:37:41;;;;;;;0.77;0.50;;;7.80;99.90;;;;;;5014440;28;20194;-87
2023/12/21 05:40:08;;;;;;;0.60;0.40;;;7.90;99.90;;;;;;5019489;28;20190;-88
2023/12/21 05:42:33;;;;;;;1.15;0.70;;;7.70;99.90;;;;;;5022236;28;20560;-88
2023/12/21 05:44:59;;;;;;;1.83;0.60;;;8.10;99.90;;;;;;5015086;28;20202;-85
2023/12/21 05:47:24;;;;;;;0.60;0.50;;;8.10;99.90;;;;;;5020264;28;20186;-87
2023/12/21 05:49:50;;;;;;;0.60;0.50;;;8.30;99.90;;;;;;5028168;28;20182;-86
2023/12/21 05:52:15;;;;;;;0.80;0.80;;;8.40;99.90;;;;;;5020201;28;20206;-85
2023/12/21 05:54:41;;;;;;;0.73;0.50;;;8.00;99.90;;;;;;5019376;28;20750;-86
2023/12/21 05:57:12;;;;;;;1.53;0.50;;;8.40;99.90;;;;;;5018394;28;20186;-87
2023/12/21 05:59:38;;;;;;;6.88;0.50;;;8.40;99.90;;;;;;5031388;28;20273;-85
2023/12/21 06:02:03;;;;;;;0.60;0.50;;;8.10;99.90;;;;;;5037197;28;20641;-86
2023/12/21 06:04:30;;;;;;;0.60;0.50;;;8.00;99.90;;;;;;5020198;28;20846;-87
2023/12/21 06:06:56;;;;;;;0.60;0.50;;;8.40;99.90;;;;;;5020891;28;20196;-86
2023/12/21 06:09:22;;;;;;;0.98;0.50;;;7.90;99.90;;;;;;5027411;28;20182;-86
2023/12/21 06:11:47;;;;;;;0.70;0.50;;;8.00;99.90;;;;;;5019116;28;20214;-85
2023/12/21 06:14:13;;;;;;;0.70;0.40;;;8.40;99.90;;;;;;5026285;28;20202;-85
2023/12/21 06:16:38;;;;;;;1.10;0.40;;;8.40;99.90;;;;;;5026682;28;20181;-85
2023/12/21 06:19:09;;;;;;;0.80;0.50;;;8.10;99.90;;;;;;5015709;28;20170;-87
2023/12/21 06:21:37;;;;;;;0.68;0.50;;;8.00;99.90;;;;;;5020283;28;20609;-85
2023/12/21 06:24:03;;;;;;;0.70;0.50;;;8.20;99.90;;;;;;5020574;28;20217;-86
2023/12/21 06:26:29;;;;;;;0.60;0.40;;;7.80;99.90;;;;;;5018051;28;20185;-88
2023/12/21 06:28:54;;;;;;;1.20;0.80;;;8.00;99.90;;;;;;5018234;28;20249;-87
2023/12/21 06:31:20;;;;;;;0.60;0.50;;;8.40;99.90;;;;;;5020311;28;20225;-86
2023/12/21 06:33:48;;;;;;;0.90;0.50;;;8.10;99.90;;;;;;5023757;28;20206;-86
2023/12/21 06:36:14;;;;;;;0.75;0.50;;;7.90;99.90;;;;;;5018504;28;20285;-87
2023/12/21 06:38:40;;;;;;;1.13;0.55;;;8.30;99.90;;;;;;5019234;28;20225;-84
2023/12/21 06:41:05;;;;;;;0.73;0.60;;;8.10;99.90;;;;;;5022407;28;20660;-85
2023/12/21 06:43:31;;;;;;;0.80;0.70;;;7.90;99.90;;;;;;5021146;28;20217;-85
2023/12/21 06:45:57;;;;;;;1.80;0.60;;;8.10;99.90;;;;;;5019755;28;20269;-84
2023/12/21 06:48:22;;;;;;;0.60;0.50;;;8.00;99.90;;;;;;5017148;28;20186;-83
2023/12/21 06:50:48;;;;;;;0.90;0.60;;;7.50;99.90;;;;;;5018222;28;21755;-86
2023/12/21 06:53:15;;;;;;;0.70;0.50;;;7.50;99.90;;;;;;5020609;28;20539;-84
2023/12/21 06:55:42;;;;;;;1.10;0.50;;;8.40;99.90;;;;;;5016251;28;20202;-86
2023/12/21 06:58:08;;;;;;;0.80;0.60;;;8.60;99.90;;;;;;5016803;28;20587;-86
2023/12/21 07:00:33;;;;;;;0.60;0.43;;;8.00;99.90;;;;;;5012316;28;20241;-87
2023/12/21 07:03:00;;;;;;;0.70;0.50;;;8.20;99.90;;;;;;5018379;28;20212;-85
2023/12/21 07:05:25;;;;;;;0.60;0.40;;;7.90;99.90;;;;;;5021278;28;20201;-85
2023/12/21 07:07:51;;;;;;;0.60;0.50;;;8.10;99.90;;;;;;5017798;28;20240;-86
2023/12/21 07:10:16;;;;;;;0.60;0.43;;;8.50;99.90;;;;;;5033534;28;20209;-85
2023/12/21 07:12:42;;;;;;;0.57;0.43;;;7.90;99.90;;;;;;5024576;28;20197;-86
2023/12/21 07:15:08;;;;;;;1.03;0.60;;;8.10;99.90;;;;;;5014722;28;20202;-86
2023/12/21 07:17:34;;;;;;;0.70;0.50;;;8.20;99.90;;;;;;5018021;28;20186;-85
2023/12/21 07:19:59;;;;;;;0.70;0.50;;;8.20;99.90;;;;;;5020424;28;20178;-85
2023/12/21 07:22:25;;;;;;;0.60;0.50;;;8.50;99.90;;;;;;5021309;28;20231;-85
2023/12/21 07:24:50;;;;;;;0.60;0.50;;;8.60;99.90;;;;;;5015944;28;20207;-86
2023/12/21 07:27:16;;;;;;;0.70;0.60;;;7.70;99.90;;;;;;5019861;28;20185;-85
2023/12/21 07:29:43;;;;;;;0.60;0.50;;;8.20;99.90;;;;;;5018291;28;20222;-86
2023/12/21 07:32:09;;;;;;;0.60;0.50;;;8.20;99.90;;;;;;5021163;28;20228;-85
2023/12/21 07:34:35;;;;;;;0.60;0.50;;;8.40;99.90;;;;;;5015857;28;20285;-86
2023/12/21 07:37:00;;;;;;;0.80;0.50;;;8.30;99.90;;;;;;5008743;28;20619;-82
2023/12/21 07:39:26;;;;;;;0.70;0.60;;;8.30;99.90;;;;;;5022587;28;20293;-80
2023/12/21 07:41:51;;;;;;;1.53;1.10;;;9.30;99.90;;;;;;5043071;28;20180;-82
2023/12/21 07:44:17;;;;;;;0.70;0.60;;;8.20;99.90;;;;;;5023480;28;20222;-81
2023/12/21 07:46:42;;;;;;;0.60;0.40;;;8.50;99.90;;;;;;5038425;28;20245;-82
2023/12/21 07:49:08;;;;;;;0.60;0.50;;;8.40;99.90;;;;;;5021555;28;20260;-81
2023/12/21 07:51:33;;;;;;;0.83;0.50;;;8.50;99.90;;;;;;5026523;28;20213;-82
2023/12/21 07:53:59;;;;;;;0.50;0.50;;;8.20;99.90;;;;;;5016910;28;20205;-82
2023/12/21 07:56:24;;;;;;;0.90;0.67;;;8.60;99.90;;;;;;5016754;28;20209;-82
2023/12/21 07:58:50;;;;;;;0.90;0.67;;;8.80;99.90;;;;;;5038262;28;20217;-81
2023/12/21 08:01:16;;;;;;;0.83;0.73;;;8.70;99.90;;;;;;5018834;28;20210;-84
2023/12/21 08:03:42;;;;;;;0.80;0.50;;;8.80;99.90;;;;;;5023031;28;20454;-82
2023/12/21 08:06:07;;;;;;;0.90;0.80;;;8.60;99.90;;;;;;5020854;28;20198;-81
2023/12/21 08:08:32;;;;;;;1.00;0.67;;;9.00;99.90;;;;;;5037358;28;20523;-82
2023/12/21 08:10:58;;;;;;;0.70;0.50;;;8.60;99.90;;;;;;5025996;28;20209;-87
2023/12/21 08:13:23;;;;;;;0.70;0.50;;;8.50;99.90;;;;;;5015663;28;20190;-88
2023/12/21 08:15:49;;;;;;;0.60;0.50;;;8.50;99.90;;;;;;5034915;28;20190;-88
2023/12/21 08:18:14;;;;;;;0.60;0.50;;;8.70;99.90;;;;;;5022770;28;20182;-88
2023/12/21 08:20:42;;;;;;;0.70;0.60;;;8.40;99.90;;;;;;5024030;28;20182;-87
2023/12/21 08:23:08;;;;;;;0.60;0.50;;;9.00;99.90;;;;;;5015266;28;20237;-87
2023/12/21 08:25:33;;;;;;;0.93;0.50;;;8.60;99.90;;;;;;5015305;28;20206;-87
2023/12/21 08:27:59;;;;;;;0.60;0.50;;;8.70;99.90;;;;;;5022211;28;20659;-88
2023/12/21 08:30:24;;;;;;;0.77;0.60;;;8.80;99.90;;;;;;5020993;28;20446;-87
2023/12/21 08:32:50;;;;;;;0.67;0.60;;;8.80;99.90;;;;;;5027449;28;20221;-87
2023/12/21 08:35:16;;;;;;;0.70;0.70;;;8.80;99.90;;;;;;5018936;28;20207;-87
2023/12/21 08:37:43;;;;;;;0.80;0.50;;;8.70;99.90;;;;;;5017917;28;20205;-90
2023/12/21 08:40:10;;;;;;;0.80;0.50;;;9.00;99.90;;;;;;5024718;28;20233;-88
2023/12/21 08:42:36;;;;;;;0.80;0.70;;;8.70;99.90;;;;;;5016575;28;20213;-87
2023/12/21 08:45:05;;;;;;;0.80;0.60;;;8.70;99.90;;;;;;5021196;28;20917;-86
2023/12/21 08:47:37;;;;;;;0.80;0.60;;;8.90;99.90;;;;;;5026343;28;20182;-87
2023/12/21 08:50:04;;;;;;;0.60;0.50;;;;;;;;;;5029912;28;20206;-84
2023/12/21 08:52:29;;;;;;;1.13;0.52;;;8.70;99.90;;;;;;5034607;28;20230;-87
2023/12/21 08:54:55;;;;;;;1.47;0.80;;;8.90;99.90;;;;;;5031072;28;20308;-87
2023/12/21 08:57:21;;;;;;;0.60;0.53;;;8.40;99.90;;;;;;5024453;28;20178;-87
2023/12/21 08:59:47;;;;;;;1.00;0.55;;;9.00;99.90;;;;;;5024568;28;20187;-87
2023/12/21 09:02:13;;;;;;;0.70;0.60;;;8.80;99.90;;;;;;5023711;28;20193;-88
2023/12/21 09:04:39;;;;;;;0.70;0.57;;;8.80;99.90;;;;;;5018783;28;20279;-88
2023/12/21 09:07:04;;;;;;;0.83;0.60;;;8.90;99.90;;;;;;5024305;28;20313;-89
2023/12/21 09:09:31;;;;;;;0.80;0.70;;;8.80;99.90;;;;;;5020623;28;20195;-89
2023/12/21 09:11:57;;;;;;;1.05;0.73;;;9.40;99.90;;;;;;5022904;28;20199;-89
2023/12/21 09:14:24;;;;;;;0.90;0.65;;;9.10;99.90;;;;;;5041147;28;20213;-85
2023/12/21 09:16:51;;;;;;;2.58;0.73;;;9.00;99.90;;;;;;5034082;28;20186;-85
2023/12/21 09:19:17;;;;;;;1.13;0.40;;;9.50;99.90;;;;;;5032304;28;20186;-87
2023/12/21 09:21:42;;;;;;;1.23;0.57;;;9.10;99.90;;;;;;5046343;28;20182;-88
2023/12/21 09:24:08;;;;;;;0.80;0.60;;;9.10;99.90;;;;;;5050160;23;20222;-88
2023/12/21 09:26:34;;;;;;;0.80;0.80;;;10.30;99.90;;;;;;5033692;28;20195;-89
2023/12/21 09:29:03;;;;;;;0.70;0.60;;;;;;;;;;5053635;28;20194;-88
2023/12/21 09:31:30;;;;;;;0.90;0.55;;;;;;;;;;5022083;28;20285;-89
2023/12/21 09:34:07;;;;;;;0.70;0.63;;;;;;;;;;5029588;23;20229;-91
2023/12/21 09:39:03;;;;;;;0.80;0.70;;;9.00;99.90;;;;;;5009930;28;20218;-84
2023/12/21 09:41:29;;;;;;;1.13;0.80;;;9.00;99.90;;;;;;5014642;28;20193;-86
2023/12/21 09:43:57;;;;;;;0.70;0.70;;;9.40;99.90;;;;;;5014790;23;20215;-86
2023/12/21 09:46:41;;;;;;;0.80;0.65;;;10.20;99.90;;;;;;4999479;28;20445;-86
2023/12/21 09:49:36;;;;;;;1.25;1.15;;;9.40;99.90;;;;;;4995815;28;20183;-87
2023/12/21 09:52:40;;;;;;;1.00;0.70;;;9.30;99.90;;;;;;5000546;28;20224;-84
2023/12/21 09:55:30;;;;;;;0.60;0.40;;;8.30;99.90;;;;;;4996821;28;20223;-83
2023/12/21 09:57:59;;;;;;;1.45;0.70;;;9.80;99.90;;;;;;4997501;28;20188;-85
2023/12/21 10:00:56;;;;;;;1.25;0.50;;;10.10;99.90;;;;;;4997550;28;20184;-83
2023/12/21 10:03:29;;;;;;;5.07;0.90;;;9.50;99.90;;;;;;4984635;28;20286;-85
2023/12/21 10:05:58;;;;;;;0.90;0.55;;;11.60;99.90;;;;;;5018482;28;20187;-84
2023/12/21 10:08:26;;;;;;;0.60;0.50;;;9.40;99.90;;;;;;4998785;28;20180;-85
2023/12/21 10:10:52;;;;;;;0.68;0.60;;;11.40;99.90;;;;;;4997607;28;20211;-85
2023/12/21 10:13:18;;;;;;;0.63;0.50;;;11.50;99.90;;;;;;4995547;28;20186;-86
2023/12/21 10:15:46;;;;;;;0.70;0.60;;;9.80;99.90;;;;;;4995358;28;20196;-84
2023/12/21 10:18:11;;;;;;;0.80;0.80;;;8.00;99.90;;;;;;4998669;28;20538;-85
2023/12/21 10:20:39;;;;;;;1.20;0.90;;;11.20;99.90;;;;;;5016697;28;20190;-86
2023/12/21 10:23:07;;;;;;;0.80;0.50;;;10.00;99.90;;;;;;4999278;28;20645;-85
2023/12/21 10:25:37;;;;;;;0.73;0.52;;;9.60;99.90;;;;;;4999851;28;20207;-85
2023/12/21 10:28:04;;;;;;;0.70;0.60;;;8.40;99.90;;;;;;5012280;28;20286;-83
2023/12/21 10:30:30;;;;;;;0.70;0.50;;;;;;;;;;4989855;28;20214;-85
2023/12/21 10:32:56;;;;;;;0.90;0.50;;;9.50;99.90;;;;;;5011523;28;20180;-85
2023/12/21 10:35:25;;;;;;;0.70;0.50;;;9.50;99.90;;;;;;4994188;28;20202;-85
2023/12/21 10:37:51;;;;;;;0.60;0.40;;;11.60;99.90;;;;;;5015352;28;20445;-85
2023/12/21 10:40:17;;;;;;;0.50;0.40;;;10.70;99.90;;;;;;5011314;28;20255;-84
2023/12/21 10:42:50;;;;;;;0.80;0.70;;;9.70;99.90;;;;;;5015539;28;20179;-84
2023/12/21 10:45:19;;;;;;;0.75;0.57;;;9.80;99.90;;;;;;4997653;28;20218;-85
2023/12/21 10:47:58;;;;;;;0.70;0.60;;;10.10;99.90;;;;;;4994851;28;20184;-86
2023/12/21 10:50:25;;;;;;;0.68;0.52;;;9.40;99.90;;;;;;4999431;28;20192;-84
2023/12/21 10:52:52;;;;;;;0.60;0.40;;;10.10;99.90;;;;;;4982918;28;20193;-83
2023/12/21 10:55:18;;;;;;;0.70;0.60;;;10.10;99.90;;;;;;5017893;28;20736;-83
2023/12/21 10:57:45;;;;;;;1.50;0.40;;;9.90;99.90;;;;;;4997207;28;20229;-83
2023/12/21 11:00:15;;;;;;;0.60;0.50;;;10.30;99.90;;;;;;5004998;28;20773;-83
2023/12/21 11:02:45;;;;;;;1.05;0.90;;;9.80;99.90;;;;;;5002122;28;20200;-83
2023/12/21 11:05:19;;;;;;;0.80;0.60;;;10.20;99.90;;;;;;5001970;28;20195;-83
2023/12/21 11:07:50;;;;;;;1.70;0.60;;;9.90;99.90;;;;;;4996105;28;20188;-83
2023/12/21 11:10:21;;;;;;;0.70;0.50;;;9.90;99.90;;;;;;4983092;28;20187;-84
2023/12/21 11:12:47;;;;;;;1.00;0.60;;;9.90;99.90;;;;;;5000742;28;20291;-84
2023/12/21 11:15:18;;;;;;;0.60;0.40;;;9.80;99.90;;;;;;4982687;28;20254;-84
2023/12/21 11:17:58;;;;;;;0.88;0.60;;;10.40;99.90;;;;;;4999032;28;20190;-84
2023/12/21 11:20:31;;;;;;;0.70;0.60;;;10.10;99.90;;;;;;4997329;28;20668;-84
2023/12/21 11:23:03;;;;;;;1.42;0.98;;;9.80;99.90;;;;;;5011543;28;20191;-83
2023/12/21 11:25:29;;;;;;;0.60;0.50;;;9.40;99.90;;;;;;5003943;28;20314;-83
2023/12/21 11:27:55;;;;;;;2.30;0.57;;;9.70;99.90;;;;;;4998127;28;20226;-83
2023/12/21 11:30:27;;;;;;;0.70;0.60;;;9.70;99.90;;;;;;5001326;28;20302;-83
2023/12/21 11:33:06;;;;;;;1.25;0.50;;;9.90;99.90;;;;;;5002995;28;20196;-83
2023/12/21 11:35:32;;;;;;;0.70;0.60;;;9.70;99.90;;;;;;5000441;28;20210;-83
2023/12/21 11:38:00;;;;;;;0.70;0.50;;;10.20;99.90;;;;;;5000330;28;20186;-83
2023/12/21 11:40:26;;;;;;;1.00;0.70;;;9.90;99.90;;;;;;5014374;28;20212;-84
2023/12/21 11:42:55;;;;;;;1.95;0.80;;;9.90;99.90;;;;;;4996441;28;20185;-83
2023/12/21 11:45:26;;;;;;;1.23;0.60;;;9.30;99.90;;;;;;4998486;28;20281;-84
2023/12/21 11:48:05;;;;;;;0.70;0.57;;;10.40;99.90;;;;;;4997752;28;20192;-84
2023/12/21 11:50:33;;;;;;;0.60;0.50;;;10.10;99.90;;;;;;4999081;28;20183;-84
2023/12/21 11:53:06;;;;;;;0.60;0.50;;;9.90;99.90;;;;;;4999532;28;20196;-84
2023/12/21 11:55:38;;;;;;;0.60;0.40;;;10.00;99.90;;;;;;5012779;28;20205;-83
2023/12/21 11:58:08;;;;;;;0.60;0.60;;;10.30;99.90;;;;;;5017184;28;20177;-84
2023/12/21 12:00:43;;;;;;;0.77;0.50;;;10.00;99.90;;;;;;5009812;28;20218;-83
2023/12/21 12:03:09;;;;;;;2.67;1.50;;;9.90;99.90;;;;;;5032274;28;20190;-84
2023/12/21 12:05:35;;;;;;;0.70;0.50;;;10.20;99.90;;;;;;5004798;28;20212;-84
2023/12/21 12:08:04;;;;;;;0.70;0.60;;;10.00;99.90;;;;;;5027032;28;20205;-83
2023/12/21 12:10:30;;;;;;;0.80;0.70;;;10.20;99.90;;;;;;5010426;28;20197;-83
2023/12/21 12:12:55;;;;;;;0.90;0.50;;;10.30;99.90;;;;;;5009503;28;20454;-83
2023/12/21 12:15:21;;;;;;;0.60;0.50;;;10.00;99.90;;;;;;5023461;28;20208;-83
2023/12/21 12:17:46;;;;;;;11.83;0.87;;;10.00;99.90;;;;;;5018784;28;20196;-83
2023/12/21 12:20:13;;;;;;;2.45;0.57;;;10.10;99.90;;;;;;5021472;28;20187;-83
2023/12/21 12:22:38;;;;;;;0.90;0.80;;;10.20;99.90;;;;;;5002877;28;20715;-83
2023/12/21 12:25:05;;;;;;;0.60;0.50;;;10.40;99.90;;;;;;5001112;28;20212;-85
2023/12/21 12:27:30;;;;;;;0.60;0.50;;;9.90;99.90;;;;;;4996327;28;20212;-84
2023/12/21 12:29:58;;;;;;;0.90;0.70;;;10.50;99.90;;;;;;4996137;28;20528;-85
2023/12/21 12:32:25;;;;;;;0.60;0.50;;;10.20;99.90;;;;;;5003517;28;20221;-84
2023/12/21 12:34:50;;;;;;;1.40;0.77;;;9.60;99.90;;;;;;5003966;28;20681;-84
2023/12/21 12:37:18;;;;;;;0.63;0.50;;;10.60;99.90;;;;;;5001448;28;20217;-85
2023/12/21 12:39:51;;;;;;;0.77;0.60;;;10.30;99.90;;;;;;5000487;28;20471;-85
2023/12/21 12:42:17;;;;;;;0.77;0.63;;;10.30;99.90;;;;;;5016181;28;20188;-85
2023/12/21 12:44:43;;;;;;;0.80;0.70;;;10.10;99.90;;;;;;5000999;28;20628;-84
2023/12/21 12:47:12;;;;;;;0.85;0.75;;;10.30;99.90;;;;;;5001763;28;20173;-86
2023/12/21 12:49:41;;;;;;;1.08;0.98;;;10.00;99.90;;;;;;4981601;28;20300;-84
2023/12/21 12:52:07;;;;;;;1.02;0.95;;;10.10;99.90;;;;;;4995734;28;20206;-88
2023/12/21 12:54:33;;;;;;;0.90;0.50;;;10.30;99.90;;;;;;5000279;28;20208;-85
2023/12/21 12:57:03;;;;;;;0.80;0.60;;;10.30;99.90;;;;;;4997014;28;20185;-86
2023/12/21 12:59:29;;;;;;;0.70;0.60;;;10.30;99.90;;;;;;4996867;28;20188;-87